Terminal Aerodrome Forecast
Issued by NWS Paducah, KY

Home | Current Version | Previous Version | Graphics & Text | Print | Product List | Glossary On
Versions: 1 2 3 4 5 6 7 8 9 10 11 12 13 14 15 16
000
FTUS43 KPAH 260537
TAFPAH
TAF
KPAH 260537Z 2606/2706 VRB02KT P6SM SKC
      TEMPO 2606/2610 4SM BR SCT060
     FM261000 33004KT P6SM SCT015 BKN050
     FM261500 35011KT P6SM OVC015=

USA.gov is the U.S. government's official web portal to all federal, state and local government web resources and services.